sensor_id;sensor_type;location;lat;lon;timestamp;temperature;humidity
7686;DHT22;3885;51.474;-2.576;2023-08-07T00:03:42;11.70;99.90
7686;DHT22;3885;51.474;-2.576;2023-08-07T00:06:09;11.70;99.90
7686;DHT22;3885;51.474;-2.576;2023-08-07T00:08:37;11.70;99.90
7686;DHT22;3885;51.474;-2.576;2023-08-07T00:11:05;11.60;99.90
7686;DHT22;3885;51.474;-2.576;2023-08-07T00:13:32;11.60;99.90
7686;DHT22;3885;51.474;-2.576;2023-08-07T00:15:59;11.50;99.90
7686;DHT22;3885;51.474;-2.576;2023-08-07T00:18:26;11.50;99.90
7686;DHT22;3885;51.474;-2.576;2023-08-07T00:20:53;11.50;99.90
7686;DHT22;3885;51.474;-2.576;2023-08-07T00:23:19;11.50;99.90
7686;DHT22;3885;51.474;-2.576;2023-08-07T00:28:15;11.40;99.90
7686;DHT22;3885;51.474;-2.576;2023-08-07T00:30:42;11.40;99.90
7686;DHT22;3885;51.474;-2.576;2023-08-07T00:33:09;11.30;99.90
7686;DHT22;3885;51.474;-2.576;2023-08-07T00:35:36;11.30;99.90
7686;DHT22;3885;51.474;-2.576;2023-08-07T00:38:04;11.20;99.90
7686;DHT22;3885;51.474;-2.576;2023-08-07T00:40:36;11.20;99.90
7686;DHT22;3885;51.474;-2.576;2023-08-07T00:43:05;11.20;99.90
7686;DHT22;3885;51.474;-2.576;2023-08-07T00:45:34;11.10;99.90
7686;DHT22;3885;51.474;-2.576;2023-08-07T00:48:02;11.10;99.90
7686;DHT22;3885;51.474;-2.576;2023-08-07T00:50:29;11.10;99.90
7686;DHT22;3885;51.474;-2.576;2023-08-07T00:57:51;11.10;99.90
7686;DHT22;3885;51.474;-2.576;2023-08-07T01:00:19;11.00;99.90
7686;DHT22;3885;51.474;-2.576;2023-08-07T01:02:47;11.00;99.90
7686;DHT22;3885;51.474;-2.576;2023-08-07T01:05:16;11.00;99.90
7686;DHT22;3885;51.474;-2.576;2023-08-07T01:07:46;10.90;99.90
7686;DHT22;3885;51.474;-2.576;2023-08-07T01:10:13;10.90;99.90
7686;DHT22;3885;51.474;-2.576;2023-08-07T01:12:45;11.00;99.90
7686;DHT22;3885;51.474;-2.576;2023-08-07T01:15:17;10.90;99.90
7686;DHT22;3885;51.474;-2.576;2023-08-07T01:17:48;10.90;99.90
7686;DHT22;3885;51.474;-2.576;2023-08-07T01:22:45;10.90;99.90
7686;DHT22;3885;51.474;-2.576;2023-08-07T01:25:12;10.90;99.90
7686;DHT22;3885;51.474;-2.576;2023-08-07T01:27:44;10.90;99.90
7686;DHT22;3885;51.474;-2.576;2023-08-07T01:30:18;10.90;99.90
7686;DHT22;3885;51.474;-2.576;2023-08-07T01:32:53;10.90;99.90
7686;DHT22;3885;51.474;-2.576;2023-08-07T01:35:23;10.90;99.90
7686;DHT22;3885;51.474;-2.576;2023-08-07T01:37:55;10.80;99.90
7686;DHT22;3885;51.474;-2.576;2023-08-07T01:40:23;10.80;99.90
7686;DHT22;3885;51.474;-2.576;2023-08-07T01:42:50;10.80;99.90
7686;DHT22;3885;51.474;-2.576;2023-08-07T01:45:23;10.80;99.90
7686;DHT22;3885;51.474;-2.576;2023-08-07T01:47:50;10.80;99.90
7686;DHT22;3885;51.474;-2.576;2023-08-07T01:50:18;10.70;99.90
7686;DHT22;3885;51.474;-2.576;2023-08-07T01:52:45;10.70;99.90
7686;DHT22;3885;51.474;-2.576;2023-08-07T01:55:14;10.70;99.90
7686;DHT22;3885;51.474;-2.576;2023-08-07T01:57:41;10.70;99.90
7686;DHT22;3885;51.474;-2.576;2023-08-07T02:00:09;10.70;99.90
7686;DHT22;3885;51.474;-2.576;2023-08-07T02:02:37;10.70;99.90
7686;DHT22;3885;51.474;-2.576;2023-08-07T02:05:05;10.70;99.90
7686;DHT22;3885;51.474;-2.576;2023-08-07T02:07:32;10.70;99.90
7686;DHT22;3885;51.474;-2.576;2023-08-07T02:09:59;10.70;99.90
7686;DHT22;3885;51.474;-2.576;2023-08-07T02:12:27;10.70;99.90
7686;DHT22;3885;51.474;-2.576;2023-08-07T02:14:57;10.70;99.90
7686;DHT22;3885;51.474;-2.576;2023-08-07T02:17:25;10.70;99.90
7686;DHT22;3885;51.474;-2.576;2023-08-07T02:19:52;10.60;99.90
7686;DHT22;3885;51.474;-2.576;2023-08-07T02:22:19;10.60;99.90
7686;DHT22;3885;51.474;-2.576;2023-08-07T02:24:46;10.60;99.90
7686;DHT22;3885;51.474;-2.576;2023-08-07T02:27:13;10.50;99.90
7686;DHT22;3885;51.474;-2.576;2023-08-07T02:29:42;10.50;99.90
7686;DHT22;3885;51.474;-2.576;2023-08-07T02:32:09;10.50;99.90
7686;DHT22;3885;51.474;-2.576;2023-08-07T02:34:35;10.50;99.90
7686;DHT22;3885;51.474;-2.576;2023-08-07T02:39:30;10.40;99.90
7686;DHT22;3885;51.474;-2.576;2023-08-07T02:41:57;10.40;99.90
7686;DHT22;3885;51.474;-2.576;2023-08-07T02:44:23;10.40;99.90
7686;DHT22;3885;51.474;-2.576;2023-08-07T02:46:52;10.30;99.90
7686;DHT22;3885;51.474;-2.576;2023-08-07T02:49:19;10.30;99.90
7686;DHT22;3885;51.474;-2.576;2023-08-07T02:51:46;10.30;99.90
7686;DHT22;3885;51.474;-2.576;2023-08-07T02:54:12;10.30;99.90
7686;DHT22;3885;51.474;-2.576;2023-08-07T02:56:40;10.20;99.90
7686;DHT22;3885;51.474;-2.576;2023-08-07T02:59:07;10.20;99.90
7686;DHT22;3885;51.474;-2.576;2023-08-07T03:04:03;10.20;99.90
7686;DHT22;3885;51.474;-2.576;2023-08-07T03:06:30;10.20;99.90
7686;DHT22;3885;51.474;-2.576;2023-08-07T03:08:57;10.10;99.90
7686;DHT22;3885;51.474;-2.576;2023-08-07T03:11:24;10.10;99.90
7686;DHT22;3885;51.474;-2.576;2023-08-07T03:16:18;10.10;99.90
7686;DHT22;3885;51.474;-2.576;2023-08-07T03:18:45;10.10;99.90
7686;DHT22;3885;51.474;-2.576;2023-08-07T03:21:14;10.10;99.90
7686;DHT22;3885;51.474;-2.576;2023-08-07T03:23:41;10.00;99.90
7686;DHT22;3885;51.474;-2.576;2023-08-07T03:26:09;10.00;99.90
7686;DHT22;3885;51.474;-2.576;2023-08-07T03:28:36;10.00;99.90
7686;DHT22;3885;51.474;-2.576;2023-08-07T03:31:03;10.00;99.90
7686;DHT22;3885;51.474;-2.576;2023-08-07T03:33:30;9.90;99.90
7686;DHT22;3885;51.474;-2.576;2023-08-07T03:35:57;9.90;99.90
7686;DHT22;3885;51.474;-2.576;2023-08-07T03:38:26;9.90;99.90
7686;DHT22;3885;51.474;-2.576;2023-08-07T03:40:52;9.90;99.90
7686;DHT22;3885;51.474;-2.576;2023-08-07T03:43:19;9.90;99.90
7686;DHT22;3885;51.474;-2.576;2023-08-07T03:45:47;9.80;99.90
7686;DHT22;3885;51.474;-2.576;2023-08-07T03:48:14;9.80;99.90
7686;DHT22;3885;51.474;-2.576;2023-08-07T03:50:41;9.80;99.90
7686;DHT22;3885;51.474;-2.576;2023-08-07T03:53:08;9.80;99.90
7686;DHT22;3885;51.474;-2.576;2023-08-07T03:55:36;9.80;99.90
7686;DHT22;3885;51.474;-2.576;2023-08-07T03:58:03;9.80;99.90
7686;DHT22;3885;51.474;-2.576;2023-08-07T04:00:30;9.70;99.90
7686;DHT22;3885;51.474;-2.576;2023-08-07T04:02:56;9.70;99.90
7686;DHT22;3885;51.474;-2.576;2023-08-07T04:05:23;9.70;99.90
7686;DHT22;3885;51.474;-2.576;2023-08-07T04:10:17;9.60;99.90
7686;DHT22;3885;51.474;-2.576;2023-08-07T04:12:46;9.70;99.90
7686;DHT22;3885;51.474;-2.576;2023-08-07T04:15:13;9.60;99.90
7686;DHT22;3885;51.474;-2.576;2023-08-07T04:17:40;9.60;99.90
7686;DHT22;3885;51.474;-2.576;2023-08-07T04:20:08;9.60;99.90
7686;DHT22;3885;51.474;-2.576;2023-08-07T04:22:35;9.60;99.90
7686;DHT22;3885;51.474;-2.576;2023-08-07T04:25:02;9.50;99.90
7686;DHT22;3885;51.474;-2.576;2023-08-07T04:27:29;9.50;99.90
7686;DHT22;3885;51.474;-2.576;2023-08-07T04:29:58;9.50;99.90
7686;DHT22;3885;51.474;-2.576;2023-08-07T04:32:24;9.40;99.90
7686;DHT22;3885;51.474;-2.576;2023-08-07T04:34:51;9.40;99.90
7686;DHT22;3885;51.474;-2.576;2023-08-07T04:37:18;9.40;99.90
7686;DHT22;3885;51.474;-2.576;2023-08-07T04:39:45;9.40;99.90
7686;DHT22;3885;51.474;-2.576;2023-08-07T04:42:12;9.40;99.90
7686;DHT22;3885;51.474;-2.576;2023-08-07T04:44:39;9.30;99.90
7686;DHT22;3885;51.474;-2.576;2023-08-07T04:47:07;9.40;99.90
7686;DHT22;3885;51.474;-2.576;2023-08-07T04:49:34;9.30;99.90
7686;DHT22;3885;51.474;-2.576;2023-08-07T04:54:28;9.30;99.90
7686;DHT22;3885;51.474;-2.576;2023-08-07T04:56:55;9.30;99.90
7686;DHT22;3885;51.474;-2.576;2023-08-07T04:59:22;9.40;99.90
7686;DHT22;3885;51.474;-2.576;2023-08-07T05:01:49;9.40;99.90
7686;DHT22;3885;51.474;-2.576;2023-08-07T05:06:44;9.40;99.90
7686;DHT22;3885;51.474;-2.576;2023-08-07T05:09:11;9.40;99.90
7686;DHT22;3885;51.474;-2.576;2023-08-07T05:11:38;9.40;99.90
7686;DHT22;3885;51.474;-2.576;2023-08-07T05:14:05;9.40;99.90
7686;DHT22;3885;51.474;-2.576;2023-08-07T05:16:32;9.50;99.90
7686;DHT22;3885;51.474;-2.576;2023-08-07T05:18:59;9.40;99.90
7686;DHT22;3885;51.474;-2.576;2023-08-07T05:21:27;9.50;99.90
7686;DHT22;3885;51.474;-2.576;2023-08-07T05:23:54;9.50;99.90
7686;DHT22;3885;51.474;-2.576;2023-08-07T05:26:21;9.50;99.90
7686;DHT22;3885;51.474;-2.576;2023-08-07T05:28:48;9.50;99.90
7686;DHT22;3885;51.474;-2.576;2023-08-07T05:31:15;9.50;99.90
7686;DHT22;3885;51.474;-2.576;2023-08-07T05:33:42;9.50;99.90
7686;DHT22;3885;51.474;-2.576;2023-08-07T05:36:09;9.60;99.90
7686;DHT22;3885;51.474;-2.576;2023-08-07T05:38:37;9.60;99.90
7686;DHT22;3885;51.474;-2.576;2023-08-07T05:43:32;9.70;99.90
7686;DHT22;3885;51.474;-2.576;2023-08-07T05:45:58;9.80;99.90
7686;DHT22;3885;51.474;-2.576;2023-08-07T05:48:26;9.90;99.90
7686;DHT22;3885;51.474;-2.576;2023-08-07T05:53:20;10.00;99.90
7686;DHT22;3885;51.474;-2.576;2023-08-07T05:55:48;10.10;99.90
7686;DHT22;3885;51.474;-2.576;2023-08-07T05:58:15;10.20;99.90
7686;DHT22;3885;51.474;-2.576;2023-08-07T06:00:42;10.30;99.90
7686;DHT22;3885;51.474;-2.576;2023-08-07T06:03:09;10.50;99.90
7686;DHT22;3885;51.474;-2.576;2023-08-07T06:05:36;10.70;99.90
7686;DHT22;3885;51.474;-2.576;2023-08-07T06:08:04;10.80;99.90
7686;DHT22;3885;51.474;-2.576;2023-08-07T06:10:30;11.00;99.90
7686;DHT22;3885;51.474;-2.576;2023-08-07T06:12:59;11.10;99.90
7686;DHT22;3885;51.474;-2.576;2023-08-07T06:15:26;11.40;99.90
7686;DHT22;3885;51.474;-2.576;2023-08-07T06:20:19;11.80;99.90
7686;DHT22;3885;51.474;-2.576;2023-08-07T06:22:46;12.00;99.90
7686;DHT22;3885;51.474;-2.576;2023-08-07T06:25:13;12.20;99.90
7686;DHT22;3885;51.474;-2.576;2023-08-07T06:30:10;12.60;99.90
7686;DHT22;3885;51.474;-2.576;2023-08-07T06:32:37;12.70;99.90
7686;DHT22;3885;51.474;-2.576;2023-08-07T06:35:04;12.90;99.90
7686;DHT22;3885;51.474;-2.576;2023-08-07T06:39:59;13.10;99.90
7686;DHT22;3885;51.474;-2.576;2023-08-07T06:42:25;13.10;99.90
7686;DHT22;3885;51.474;-2.576;2023-08-07T06:47:21;13.20;99.90
7686;DHT22;3885;51.474;-2.576;2023-08-07T06:49:48;13.20;99.90
7686;DHT22;3885;51.474;-2.576;2023-08-07T06:52:15;13.20;99.90
7686;DHT22;3885;51.474;-2.576;2023-08-07T06:54:42;13.40;99.90
7686;DHT22;3885;51.474;-2.576;2023-08-07T06:57:08;13.60;99.90
7686;DHT22;3885;51.474;-2.576;2023-08-07T06:59:35;13.90;99.90
7686;DHT22;3885;51.474;-2.576;2023-08-07T07:02:04;14.20;99.90
7686;DHT22;3885;51.474;-2.576;2023-08-07T07:04:32;14.50;99.90
7686;DHT22;3885;51.474;-2.576;2023-08-07T07:07:01;14.50;99.90
7686;DHT22;3885;51.474;-2.576;2023-08-07T07:09:28;14.70;99.90
7686;DHT22;3885;51.474;-2.576;2023-08-07T07:11:56;14.80;99.90
7686;DHT22;3885;51.474;-2.576;2023-08-07T07:14:23;14.90;99.90
7686;DHT22;3885;51.474;-2.576;2023-08-07T07:16:50;15.10;99.90
7686;DHT22;3885;51.474;-2.576;2023-08-07T07:19:17;15.20;99.90
7686;DHT22;3885;51.474;-2.576;2023-08-07T07:24:12;15.50;99.90
7686;DHT22;3885;51.474;-2.576;2023-08-07T07:26:39;15.80;99.90
7686;DHT22;3885;51.474;-2.576;2023-08-07T07:29:06;15.90;99.90
7686;DHT22;3885;51.474;-2.576;2023-08-07T07:31:33;16.00;99.90
7686;DHT22;3885;51.474;-2.576;2023-08-07T07:34:00;16.20;99.90
7686;DHT22;3885;51.474;-2.576;2023-08-07T07:38:56;16.50;99.90
7686;DHT22;3885;51.474;-2.576;2023-08-07T07:43:50;16.60;99.90
7686;DHT22;3885;51.474;-2.576;2023-08-07T07:46:17;16.80;99.90
7686;DHT22;3885;51.474;-2.576;2023-08-07T07:48:44;17.10;99.90
7686;DHT22;3885;51.474;-2.576;2023-08-07T07:53:38;17.40;99.90
7686;DHT22;3885;51.474;-2.576;2023-08-07T07:56:07;17.40;99.90
7686;DHT22;3885;51.474;-2.576;2023-08-07T08:03:28;17.50;99.90
7686;DHT22;3885;51.474;-2.576;2023-08-07T08:05:55;17.60;99.90
7686;DHT22;3885;51.474;-2.576;2023-08-07T08:15:45;17.70;99.90
7686;DHT22;3885;51.474;-2.576;2023-08-07T08:18:12;17.80;99.90
7686;DHT22;3885;51.474;-2.576;2023-08-07T08:20:39;17.90;99.90
7686;DHT22;3885;51.474;-2.576;2023-08-07T08:23:07;17.90;99.90
7686;DHT22;3885;51.474;-2.576;2023-08-07T08:25:34;18.10;99.90
7686;DHT22;3885;51.474;-2.576;2023-08-07T08:28:01;18.00;99.90
7686;DHT22;3885;51.474;-2.576;2023-08-07T08:30:29;18.20;99.90
7686;DHT22;3885;51.474;-2.576;2023-08-07T08:32:56;18.40;99.90
7686;DHT22;3885;51.474;-2.576;2023-08-07T08:35:23;18.60;99.90
7686;DHT22;3885;51.474;-2.576;2023-08-07T08:37:50;18.40;99.90
7686;DHT22;3885;51.474;-2.576;2023-08-07T08:40:17;18.40;99.90
7686;DHT22;3885;51.474;-2.576;2023-08-07T08:42:45;18.40;99.90
7686;DHT22;3885;51.474;-2.576;2023-08-07T08:45:14;18.50;99.90
7686;DHT22;3885;51.474;-2.576;2023-08-07T08:47:43;18.40;99.90
7686;DHT22;3885;51.474;-2.576;2023-08-07T08:50:12;18.60;99.90
7686;DHT22;3885;51.474;-2.576;2023-08-07T08:52:42;18.60;99.90
7686;DHT22;3885;51.474;-2.576;2023-08-07T08:55:09;18.60;99.90
7686;DHT22;3885;51.474;-2.576;2023-08-07T09:00:05;18.80;99.90
7686;DHT22;3885;51.474;-2.576;2023-08-07T09:02:45;19.10;99.90
7686;DHT22;3885;51.474;-2.576;2023-08-07T09:05:14;19.30;99.90
7686;DHT22;3885;51.474;-2.576;2023-08-07T09:07:42;19.40;99.90
7686;DHT22;3885;51.474;-2.576;2023-08-07T09:10:10;19.50;99.90
7686;DHT22;3885;51.474;-2.576;2023-08-07T09:12:40;19.60;99.90
7686;DHT22;3885;51.474;-2.576;2023-08-07T09:15:09;19.80;99.90
7686;DHT22;3885;51.474;-2.576;2023-08-07T09:17:39;19.90;99.90
7686;DHT22;3885;51.474;-2.576;2023-08-07T09:20:09;20.00;99.90
7686;DHT22;3885;51.474;-2.576;2023-08-07T09:22:39;20.10;99.90
7686;DHT22;3885;51.474;-2.576;2023-08-07T09:25:07;20.30;99.90
7686;DHT22;3885;51.474;-2.576;2023-08-07T09:32:34;20.10;99.90
7686;DHT22;3885;51.474;-2.576;2023-08-07T09:40:03;20.60;99.90
7686;DHT22;3885;51.474;-2.576;2023-08-07T09:47:27;20.50;99.90
7686;DHT22;3885;51.474;-2.576;2023-08-07T09:52:24;20.70;99.90
7686;DHT22;3885;51.474;-2.576;2023-08-07T09:54:56;20.70;99.90
7686;DHT22;3885;51.474;-2.576;2023-08-07T10:04:49;20.30;99.90
7686;DHT22;3885;51.474;-2.576;2023-08-07T10:09:44;20.70;99.90
7686;DHT22;3885;51.474;-2.576;2023-08-07T10:12:14;20.70;99.90
7686;DHT22;3885;51.474;-2.576;2023-08-07T10:14:43;20.40;99.90
7686;DHT22;3885;51.474;-2.576;2023-08-07T10:17:11;20.50;99.90
7686;DHT22;3885;51.474;-2.576;2023-08-07T10:24:35;20.40;99.90
7686;DHT22;3885;51.474;-2.576;2023-08-07T10:27:04;20.50;99.90
7686;DHT22;3885;51.474;-2.576;2023-08-07T10:29:33;20.70;99.90
7686;DHT22;3885;51.474;-2.576;2023-08-07T10:36:56;21.10;99.90
7686;DHT22;3885;51.474;-2.576;2023-08-07T10:39:23;21.30;99.90
7686;DHT22;3885;51.474;-2.576;2023-08-07T10:44:20;20.90;99.90
7686;DHT22;3885;51.474;-2.576;2023-08-07T10:49:37;20.90;99.90
7686;DHT22;3885;51.474;-2.576;2023-08-07T10:52:08;20.80;99.90
7686;DHT22;3885;51.474;-2.576;2023-08-07T10:54:38;20.90;99.90
7686;DHT22;3885;51.474;-2.576;2023-08-07T10:57:12;21.20;99.90
7686;DHT22;3885;51.474;-2.576;2023-08-07T10:59:44;21.20;99.90
7686;DHT22;3885;51.474;-2.576;2023-08-07T11:02:22;21.20;99.90
7686;DHT22;3885;51.474;-2.576;2023-08-07T11:07:24;21.10;99.90
7686;DHT22;3885;51.474;-2.576;2023-08-07T11:09:51;21.10;99.90
7686;DHT22;3885;51.474;-2.576;2023-08-07T11:12:18;21.40;99.90
7686;DHT22;3885;51.474;-2.576;2023-08-07T11:19:42;21.50;99.90
7686;DHT22;3885;51.474;-2.576;2023-08-07T11:27:05;21.50;99.90
7686;DHT22;3885;51.474;-2.576;2023-08-07T11:29:34;21.40;99.90
7686;DHT22;3885;51.474;-2.576;2023-08-07T11:34:29;21.80;99.90
7686;DHT22;3885;51.474;-2.576;2023-08-07T11:36:56;21.80;99.90
7686;DHT22;3885;51.474;-2.576;2023-08-07T11:39:24;21.90;99.90
7686;DHT22;3885;51.474;-2.576;2023-08-07T11:41:51;21.90;99.90
7686;DHT22;3885;51.474;-2.576;2023-08-07T11:44:19;22.00;99.90
7686;DHT22;3885;51.474;-2.576;2023-08-07T11:49:13;21.60;99.90
7686;DHT22;3885;51.474;-2.576;2023-08-07T11:51:42;21.60;99.90
7686;DHT22;3885;51.474;-2.576;2023-08-07T11:54:15;21.60;99.90
7686;DHT22;3885;51.474;-2.576;2023-08-07T11:56:42;21.80;99.90
7686;DHT22;3885;51.474;-2.576;2023-08-07T11:59:09;21.90;99.90
7686;DHT22;3885;51.474;-2.576;2023-08-07T12:04:09;22.00;99.90
7686;DHT22;3885;51.474;-2.576;2023-08-07T12:06:36;21.90;99.90
7686;DHT22;3885;51.474;-2.576;2023-08-07T12:09:06;21.90;99.90
7686;DHT22;3885;51.474;-2.576;2023-08-07T12:11:36;21.70;99.90
7686;DHT22;3885;51.474;-2.576;2023-08-07T12:14:03;21.60;99.90
7686;DHT22;3885;51.474;-2.576;2023-08-07T12:19:00;21.70;99.90
7686;DHT22;3885;51.474;-2.576;2023-08-07T12:21:28;21.70;99.90
7686;DHT22;3885;51.474;-2.576;2023-08-07T12:23:55;21.70;99.90
7686;DHT22;3885;51.474;-2.576;2023-08-07T12:26:25;21.60;99.90
7686;DHT22;3885;51.474;-2.576;2023-08-07T12:28:52;21.70;99.90
7686;DHT22;3885;51.474;-2.576;2023-08-07T12:31:19;21.60;99.90
7686;DHT22;3885;51.474;-2.576;2023-08-07T12:36:13;22.00;99.90
7686;DHT22;3885;51.474;-2.576;2023-08-07T12:38:41;21.80;99.90
7686;DHT22;3885;51.474;-2.576;2023-08-07T12:41:08;21.50;99.90
7686;DHT22;3885;51.474;-2.576;2023-08-07T12:43:36;21.50;99.90
7686;DHT22;3885;51.474;-2.576;2023-08-07T12:46:03;21.40;99.90
7686;DHT22;3885;51.474;-2.576;2023-08-07T12:48:30;21.50;99.90
7686;DHT22;3885;51.474;-2.576;2023-08-07T12:50:57;21.10;99.90
7686;DHT22;3885;51.474;-2.576;2023-08-07T12:53:24;20.90;99.90
7686;DHT22;3885;51.474;-2.576;2023-08-07T12:55:51;20.80;99.90
7686;DHT22;3885;51.474;-2.576;2023-08-07T12:58:18;20.80;99.90
7686;DHT22;3885;51.474;-2.576;2023-08-07T13:00:50;20.80;99.90
7686;DHT22;3885;51.474;-2.576;2023-08-07T13:03:16;20.70;99.90
7686;DHT22;3885;51.474;-2.576;2023-08-07T13:05:43;20.80;99.90
7686;DHT22;3885;51.474;-2.576;2023-08-07T13:08:10;20.80;99.90
7686;DHT22;3885;51.474;-2.576;2023-08-07T13:10:37;20.80;99.90
7686;DHT22;3885;51.474;-2.576;2023-08-07T13:13:04;20.90;99.90
7686;DHT22;3885;51.474;-2.576;2023-08-07T13:15:32;20.90;99.90
7686;DHT22;3885;51.474;-2.576;2023-08-07T13:18:00;21.00;99.90
7686;DHT22;3885;51.474;-2.576;2023-08-07T13:20:27;21.00;99.90
7686;DHT22;3885;51.474;-2.576;2023-08-07T13:27:53;20.80;99.90
7686;DHT22;3885;51.474;-2.576;2023-08-07T13:30:20;20.70;99.90
7686;DHT22;3885;51.474;-2.576;2023-08-07T13:32:47;20.70;99.90
7686;DHT22;3885;51.474;-2.576;2023-08-07T13:37:42;21.30;99.90
7686;DHT22;3885;51.474;-2.576;2023-08-07T13:42:39;21.00;99.90
7686;DHT22;3885;51.474;-2.576;2023-08-07T13:45:07;21.10;99.90
7686;DHT22;3885;51.474;-2.576;2023-08-07T13:47:35;21.00;99.90
7686;DHT22;3885;51.474;-2.576;2023-08-07T13:52:33;21.00;99.90
7686;DHT22;3885;51.474;-2.576;2023-08-07T13:55:00;21.00;99.90
7686;DHT22;3885;51.474;-2.576;2023-08-07T13:57:27;21.00;99.90
7686;DHT22;3885;51.474;-2.576;2023-08-07T13:59:54;21.10;99.90
7686;DHT22;3885;51.474;-2.576;2023-08-07T14:02:21;21.10;99.90
7686;DHT22;3885;51.474;-2.576;2023-08-07T14:04:48;21.30;99.90
7686;DHT22;3885;51.474;-2.576;2023-08-07T14:07:15;21.20;99.90
7686;DHT22;3885;51.474;-2.576;2023-08-07T14:12:11;21.20;99.90
7686;DHT22;3885;51.474;-2.576;2023-08-07T14:17:05;21.30;99.90
7686;DHT22;3885;51.474;-2.576;2023-08-07T14:24:27;20.90;99.90
7686;DHT22;3885;51.474;-2.576;2023-08-07T14:29:22;20.70;99.90
7686;DHT22;3885;51.474;-2.576;2023-08-07T14:31:49;20.80;99.90
7686;DHT22;3885;51.474;-2.576;2023-08-07T14:39:10;20.90;99.90
7686;DHT22;3885;51.474;-2.576;2023-08-07T14:41:37;20.90;99.90
7686;DHT22;3885;51.474;-2.576;2023-08-07T14:44:05;21.20;99.90
7686;DHT22;3885;51.474;-2.576;2023-08-07T14:51:27;21.50;99.90
7686;DHT22;3885;51.474;-2.576;2023-08-07T14:53:54;21.60;99.90
7686;DHT22;3885;51.474;-2.576;2023-08-07T14:56:20;21.70;99.90
7686;DHT22;3885;51.474;-2.576;2023-08-07T14:58:47;21.60;99.90
7686;DHT22;3885;51.474;-2.576;2023-08-07T15:01:16;21.40;99.90
7686;DHT22;3885;51.474;-2.576;2023-08-07T15:03:43;21.20;99.90
7686;DHT22;3885;51.474;-2.576;2023-08-07T15:06:10;21.30;99.90
7686;DHT22;3885;51.474;-2.576;2023-08-07T15:08:36;21.30;99.90
7686;DHT22;3885;51.474;-2.576;2023-08-07T15:11:03;21.10;99.90
7686;DHT22;3885;51.474;-2.576;2023-08-07T15:13:30;21.00;99.90
7686;DHT22;3885;51.474;-2.576;2023-08-07T15:20:54;20.60;99.90
7686;DHT22;3885;51.474;-2.576;2023-08-07T15:23:22;20.60;99.90
7686;DHT22;3885;51.474;-2.576;2023-08-07T15:25:50;20.80;99.90
7686;DHT22;3885;51.474;-2.576;2023-08-07T15:28:16;20.80;99.90
7686;DHT22;3885;51.474;-2.576;2023-08-07T15:30:47;20.90;99.90
7686;DHT22;3885;51.474;-2.576;2023-08-07T15:33:14;20.90;99.90
7686;DHT22;3885;51.474;-2.576;2023-08-07T15:35:43;20.80;99.90
7686;DHT22;3885;51.474;-2.576;2023-08-07T15:38:10;20.70;99.90
7686;DHT22;3885;51.474;-2.576;2023-08-07T15:40:38;20.60;99.90
7686;DHT22;3885;51.474;-2.576;2023-08-07T15:43:05;20.60;99.90
7686;DHT22;3885;51.474;-2.576;2023-08-07T15:47:59;20.70;99.90
7686;DHT22;3885;51.474;-2.576;2023-08-07T15:50:26;20.60;99.90
7686;DHT22;3885;51.474;-2.576;2023-08-07T15:55:22;20.50;99.90
7686;DHT22;3885;51.474;-2.576;2023-08-07T15:57:49;20.20;99.90
7686;DHT22;3885;51.474;-2.576;2023-08-07T16:00:16;20.30;99.90
7686;DHT22;3885;51.474;-2.576;2023-08-07T16:02:43;20.20;99.90
7686;DHT22;3885;51.474;-2.576;2023-08-07T16:05:10;20.50;99.90
7686;DHT22;3885;51.474;-2.576;2023-08-07T16:07:37;20.60;99.90
7686;DHT22;3885;51.474;-2.576;2023-08-07T16:12:34;20.80;99.90
7686;DHT22;3885;51.474;-2.576;2023-08-07T16:17:28;21.10;99.90
7686;DHT22;3885;51.474;-2.576;2023-08-07T16:19:56;21.10;99.90
7686;DHT22;3885;51.474;-2.576;2023-08-07T16:24:50;20.80;99.90
7686;DHT22;3885;51.474;-2.576;2023-08-07T16:27:18;20.60;99.90
7686;DHT22;3885;51.474;-2.576;2023-08-07T16:29:46;20.10;99.90
7686;DHT22;3885;51.474;-2.576;2023-08-07T16:32:13;19.90;99.90
7686;DHT22;3885;51.474;-2.576;2023-08-07T16:34:40;19.90;99.90
7686;DHT22;3885;51.474;-2.576;2023-08-07T16:37:06;19.90;99.90
7686;DHT22;3885;51.474;-2.576;2023-08-07T16:39:33;19.70;99.90
7686;DHT22;3885;51.474;-2.576;2023-08-07T16:42:00;19.50;99.90
7686;DHT22;3885;51.474;-2.576;2023-08-07T16:44:28;19.50;99.90
7686;DHT22;3885;51.474;-2.576;2023-08-07T16:46:55;19.30;99.90
7686;DHT22;3885;51.474;-2.576;2023-08-07T16:49:22;19.40;99.90
7686;DHT22;3885;51.474;-2.576;2023-08-07T16:51:49;19.30;99.90
7686;DHT22;3885;51.474;-2.576;2023-08-07T16:54:19;19.40;99.90
7686;DHT22;3885;51.474;-2.576;2023-08-07T16:56:46;19.40;99.90
7686;DHT22;3885;51.474;-2.576;2023-08-07T16:59:13;19.40;99.90
7686;DHT22;3885;51.474;-2.576;2023-08-07T17:01:41;19.40;99.90
7686;DHT22;3885;51.474;-2.576;2023-08-07T17:06:35;19.50;99.90
7686;DHT22;3885;51.474;-2.576;2023-08-07T17:09:03;19.40;99.90
7686;DHT22;3885;51.474;-2.576;2023-08-07T17:11:29;19.60;99.90
7686;DHT22;3885;51.474;-2.576;2023-08-07T17:13:58;19.70;99.90
7686;DHT22;3885;51.474;-2.576;2023-08-07T17:16:26;19.60;99.90
7686;DHT22;3885;51.474;-2.576;2023-08-07T17:18:55;19.70;99.90
7686;DHT22;3885;51.474;-2.576;2023-08-07T17:23:49;19.50;99.90
7686;DHT22;3885;51.474;-2.576;2023-08-07T17:26:16;19.50;99.90
7686;DHT22;3885;51.474;-2.576;2023-08-07T17:31:10;19.40;99.90
7686;DHT22;3885;51.474;-2.576;2023-08-07T17:33:37;19.40;99.90
7686;DHT22;3885;51.474;-2.576;2023-08-07T17:38:33;19.30;99.90
7686;DHT22;3885;51.474;-2.576;2023-08-07T17:41:00;19.30;99.90
7686;DHT22;3885;51.474;-2.576;2023-08-07T17:45:55;19.20;99.90
7686;DHT22;3885;51.474;-2.576;2023-08-07T17:48:22;19.10;99.90
7686;DHT22;3885;51.474;-2.576;2023-08-07T17:50:49;19.10;99.90
7686;DHT22;3885;51.474;-2.576;2023-08-07T17:53:18;19.10;99.90
7686;DHT22;3885;51.474;-2.576;2023-08-07T17:55:45;19.10;99.90
7686;DHT22;3885;51.474;-2.576;2023-08-07T17:58:12;19.10;99.90
7686;DHT22;3885;51.474;-2.576;2023-08-07T18:03:06;18.90;99.90
7686;DHT22;3885;51.474;-2.576;2023-08-07T18:05:34;18.80;99.90
7686;DHT22;3885;51.474;-2.576;2023-08-07T18:08:02;18.70;99.90
7686;DHT22;3885;51.474;-2.576;2023-08-07T18:10:31;18.60;99.90
7686;DHT22;3885;51.474;-2.576;2023-08-07T18:12:58;18.50;99.90
7686;DHT22;3885;51.474;-2.576;2023-08-07T18:17:52;18.30;99.90
7686;DHT22;3885;51.474;-2.576;2023-08-07T18:20:19;18.30;99.90
7686;DHT22;3885;51.474;-2.576;2023-08-07T18:22:46;18.20;99.90
7686;DHT22;3885;51.474;-2.576;2023-08-07T18:25:13;18.30;99.90
7686;DHT22;3885;51.474;-2.576;2023-08-07T18:27:42;18.20;99.90
7686;DHT22;3885;51.474;-2.576;2023-08-07T18:30:09;18.20;99.90
7686;DHT22;3885;51.474;-2.576;2023-08-07T18:32:37;18.20;99.90
7686;DHT22;3885;51.474;-2.576;2023-08-07T18:35:07;18.30;99.90
7686;DHT22;3885;51.474;-2.576;2023-08-07T18:37:34;18.20;99.90
7686;DHT22;3885;51.474;-2.576;2023-08-07T18:40:01;18.20;99.90
7686;DHT22;3885;51.474;-2.576;2023-08-07T18:42:29;18.10;99.90
7686;DHT22;3885;51.474;-2.576;2023-08-07T18:44:57;18.00;99.90
7686;DHT22;3885;51.474;-2.576;2023-08-07T18:47:24;18.00;99.90
7686;DHT22;3885;51.474;-2.576;2023-08-07T18:49:51;17.80;99.90
7686;DHT22;3885;51.474;-2.576;2023-08-07T18:52:18;17.70;99.90
7686;DHT22;3885;51.474;-2.576;2023-08-07T18:54:45;17.60;99.90
7686;DHT22;3885;51.474;-2.576;2023-08-07T18:57:12;17.50;99.90
7686;DHT22;3885;51.474;-2.576;2023-08-07T18:59:39;17.40;99.90
7686;DHT22;3885;51.474;-2.576;2023-08-07T19:04:35;17.40;99.90
7686;DHT22;3885;51.474;-2.576;2023-08-07T19:07:03;17.30;99.90
7686;DHT22;3885;51.474;-2.576;2023-08-07T19:11:57;17.10;99.90
7686;DHT22;3885;51.474;-2.576;2023-08-07T19:14:24;17.20;99.90
7686;DHT22;3885;51.474;-2.576;2023-08-07T19:19:20;17.00;99.90